Time;durP1;ratioP1;P1;durP2;ratioP2;P2;SDS_P1;SDS_P2;PMS_P1;PMS_P2;Temp;Humidity;BMP_temperature;BMP_pressure;BME280_temperature;BME280_humidity;BME280_pressure;Samples;Min_cycle;Max_cycle;Signal;HPM_P1;HPM_P2
2022/09/14 04:48:16;;;;;;;16.95;8.45;;;17.80;99.90;;;;;;6199838;23;20402;-72
2022/09/14 04:50:42;;;;;;;14.40;8.15;;;17.80;99.90;;;;;;6225457;23;20177;-72
2022/09/14 04:53:09;;;;;;;14.90;8.48;;;17.90;99.90;;;;;;6225749;23;20008;-72
2022/09/14 04:55:34;;;;;;;15.20;8.00;;;17.80;99.90;;;;;;6224881;23;20056;-71
2022/09/14 04:58:00;;;;;;;12.77;7.30;;;17.70;99.90;;;;;;6225289;23;20000;-73
2022/09/14 05:00:26;;;;;;;13.93;7.35;;;17.80;99.90;;;;;;6224391;23;20241;-70
2022/09/14 05:02:52;;;;;;;14.00;6.88;;;17.80;99.90;;;;;;6224699;23;20051;-70
2022/09/14 05:05:17;;;;;;;15.60;9.00;;;17.90;99.90;;;;;;6225073;23;20262;-72
2022/09/14 05:07:43;;;;;;;21.13;9.40;;;17.90;99.90;;;;;;6224941;23;20012;-71
2022/09/14 05:10:09;;;;;;;19.38;9.13;;;17.80;99.90;;;;;;6224943;23;20004;-70
2022/09/14 05:12:35;;;;;;;16.88;8.10;;;17.80;99.90;;;;;;6224671;23;20051;-70
2022/09/14 05:15:00;;;;;;;18.30;8.98;;;17.80;99.90;;;;;;6223742;23;20024;-70
2022/09/14 05:17:26;;;;;;;18.40;8.40;;;17.80;99.90;;;;;;6224502;23;20182;-76
2022/09/14 05:19:52;;;;;;;13.98;8.48;;;17.90;99.90;;;;;;6224899;23;19993;-72
2022/09/14 05:22:20;;;;;;;14.95;8.98;;;17.80;99.90;;;;;;6198158;23;20286;-71
2022/09/14 05:24:45;;;;;;;12.90;7.93;;;17.90;99.90;;;;;;6223557;23;20424;-70
2022/09/14 05:27:11;;;;;;;16.13;8.88;;;17.90;99.90;;;;;;6223548;23;20013;-71
2022/09/14 05:29:39;;;;;;;14.48;9.15;;;17.90;99.90;;;;;;6223395;23;20322;-70
2022/09/14 05:32:05;;;;;;;17.17;8.40;;;18.10;99.90;;;;;;6224060;23;20009;-70
2022/09/14 05:34:31;;;;;;;17.65;8.65;;;18.00;99.90;;;;;;6223386;23;20001;-70
2022/09/14 05:36:56;;;;;;;9.77;7.03;;;17.90;99.90;;;;;;6223152;23;20301;-71
2022/09/14 05:39:23;;;;;;;10.30;7.00;;;18.00;99.90;;;;;;6222838;23;20012;-70
2022/09/14 05:41:50;;;;;;;14.05;7.28;;;18.10;99.90;;;;;;6223129;23;20008;-70
2022/09/14 05:44:16;;;;;;;15.85;6.95;;;18.10;99.90;;;;;;6222814;23;20031;-70
2022/09/14 05:46:42;;;;;;;12.15;7.55;;;18.20;99.90;;;;;;6222971;23;20063;-70
2022/09/14 05:49:08;;;;;;;15.85;8.18;;;18.30;99.90;;;;;;6223818;23;20001;-71
2022/09/14 05:51:33;;;;;;;13.88;6.95;;;18.20;99.90;;;;;;6223115;23;20285;-71
2022/09/14 05:53:59;;;;;;;13.70;6.82;;;18.20;99.90;;;;;;6223592;23;20004;-70
2022/09/14 05:56:27;;;;;;;12.48;7.40;;;18.30;99.90;;;;;;6223020;23;20013;-70
2022/09/14 05:58:54;;;;;;;16.77;7.90;;;18.30;99.90;;;;;;6223665;23;20279;-71
2022/09/14 06:01:28;;;;;;;13.88;7.90;;;18.30;99.90;;;;;;6223342;23;19989;-76
2022/09/14 06:03:55;;;;;;;13.13;6.90;;;18.50;99.90;;;;;;6223984;23;20004;-71
2022/09/14 06:06:22;;;;;;;14.07;7.63;;;18.40;99.90;;;;;;6223041;23;20030;-71
2022/09/14 06:08:51;;;;;;;10.18;6.70;;;18.50;99.90;;;;;;6223399;23;20233;-71
2022/09/14 06:11:20;;;;;;;13.30;6.78;;;18.60;99.90;;;;;;6222268;23;20015;-71
2022/09/14 06:13:46;;;;;;;12.10;8.05;;;18.60;99.90;;;;;;6223090;23;20005;-72
2022/09/14 06:16:17;;;;;;;14.07;8.68;;;18.60;99.90;;;;;;6222763;23;20020;-72
2022/09/14 06:18:44;;;;;;;13.48;8.88;;;18.60;99.90;;;;;;6223223;23;20004;-71
2022/09/14 06:21:15;;;;;;;12.82;7.50;;;18.80;99.90;;;;;;6222999;23;20008;-71
2022/09/14 06:23:42;;;;;;;10.18;7.32;;;18.80;99.90;;;;;;6222676;23;20001;-71
2022/09/14 06:26:08;;;;;;;14.00;7.97;;;19.00;99.90;;;;;;6223205;23;20009;-71
2022/09/14 06:28:35;;;;;;;18.45;9.27;;;19.10;99.90;;;;;;6222239;23;19996;-71
2022/09/14 06:31:06;;;;;;;12.82;8.05;;;19.10;99.90;;;;;;6222893;23;20317;-71
2022/09/14 06:33:33;;;;;;;15.40;8.07;;;19.10;99.90;;;;;;6222783;23;20067;-71
2022/09/14 06:36:01;;;;;;;11.75;7.05;;;19.30;99.90;;;;;;6222861;23;20005;-71
2022/09/14 06:38:27;;;;;;;11.07;7.00;;;19.20;99.90;;;;;;6222388;23;20322;-71
2022/09/14 06:40:58;;;;;;;9.80;6.22;;;19.30;99.90;;;;;;6222534;23;20000;-71
2022/09/14 06:43:28;;;;;;;9.55;6.35;;;19.50;99.90;;;;;;6222532;23;20190;-71
2022/09/14 06:46:05;;;;;;;11.38;6.47;;;19.60;99.90;;;;;;6222025;23;20056;-72
2022/09/14 06:48:34;;;;;;;11.40;7.25;;;19.50;99.90;;;;;;6222025;23;20015;-72
2022/09/14 06:51:09;;;;;;;14.55;8.10;;;19.50;99.90;;;;;;6223037;23;20020;-72
2022/09/14 06:53:35;;;;;;;14.50;8.27;;;19.60;99.90;;;;;;6221912;23;20005;-72
2022/09/14 06:56:01;;;;;;;15.68;7.60;;;19.50;99.90;;;;;;6222609;23;20139;-71
2022/09/14 06:58:26;;;;;;;8.85;5.88;;;19.40;99.90;;;;;;6222323;23;20007;-72
2022/09/14 07:00:52;;;;;;;7.97;4.90;;;19.40;99.90;;;;;;6223227;23;20158;-72
2022/09/14 07:03:18;;;;;;;8.68;5.25;;;19.50;99.90;;;;;;6222040;23;20000;-71
2022/09/14 07:05:44;;;;;;;6.13;3.97;;;19.40;99.90;;;;;;6222719;23;20270;-72
2022/09/14 07:08:09;;;;;;;7.93;4.13;;;19.60;99.90;;;;;;6222584;23;20007;-71
2022/09/14 07:10:35;;;;;;;7.00;4.40;;;19.70;99.90;;;;;;6221753;23;20004;-72
2022/09/14 07:13:01;;;;;;;7.68;4.10;;;19.50;99.90;;;;;;6222705;23;20019;-72
2022/09/14 07:15:26;;;;;;;7.10;3.97;;;19.60;99.90;;;;;;6221761;23;19989;-72
2022/09/14 07:17:52;;;;;;;7.72;4.20;;;19.70;99.90;;;;;;6222663;23;20424;-71
2022/09/14 07:20:18;;;;;;;5.18;3.70;;;19.90;99.90;;;;;;6221656;23;19988;-73
2022/09/14 07:22:44;;;;;;;6.03;3.60;;;19.70;99.90;;;;;;6220077;23;20007;-71
2022/09/14 07:25:10;;;;;;;7.20;3.28;;;19.90;99.90;;;;;;6221832;23;20000;-71
2022/09/14 07:27:38;;;;;;;6.30;3.28;;;19.90;99.90;;;;;;6222171;23;20011;-71
2022/09/14 07:30:06;;;;;;;4.30;2.83;;;20.00;99.90;;;;;;6222258;23;20312;-72
2022/09/14 07:32:32;;;;;;;6.28;3.03;;;20.00;99.90;;;;;;6221724;23;20023;-72
2022/09/14 07:34:57;;;;;;;6.03;2.90;;;19.80;99.90;;;;;;6222272;23;20263;-71
2022/09/14 07:37:23;;;;;;;6.65;3.10;;;20.00;99.90;;;;;;6221451;23;20309;-71
2022/09/14 07:39:49;;;;;;;4.30;3.00;;;20.00;99.90;;;;;;6222335;23;20001;-71
2022/09/14 07:42:14;;;;;;;7.38;3.33;;;20.10;99.90;;;;;;6221885;23;20001;-71
2022/09/14 07:44:40;;;;;;;4.75;2.70;;;20.00;99.90;;;;;;6221417;23;20005;-71
2022/09/14 07:47:06;;;;;;;4.13;3.35;;;19.90;99.90;;;;;;6221212;23;20026;-72
2022/09/14 07:49:32;;;;;;;5.63;3.28;;;20.00;99.90;;;;;;6220454;23;20009;-71
2022/09/14 07:51:58;;;;;;;8.65;3.28;;;20.30;99.90;;;;;;6222170;23;20356;-70
2022/09/14 07:54:25;;;;;;;4.40;3.22;;;20.20;99.90;;;;;;6221692;23;20008;-70
2022/09/14 07:56:50;;;;;;;3.95;2.70;;;20.10;99.90;;;;;;6196339;23;20310;-70
2022/09/14 07:59:16;;;;;;;7.10;3.03;;;20.30;99.90;;;;;;6223955;23;20028;-70
2022/09/14 08:01:42;;;;;;;5.20;3.00;;;20.30;99.90;;;;;;6222903;23;20016;-71
2022/09/14 08:04:08;;;;;;;5.72;3.15;;;20.30;99.90;;;;;;6224179;23;20012;-69
2022/09/14 08:06:36;;;;;;;6.60;3.20;;;20.40;99.90;;;;;;6223339;23;20013;-71
2022/09/14 08:09:07;;;;;;;5.37;2.80;;;20.60;99.90;;;;;;6223956;23;19996;-70
2022/09/14 08:11:35;;;;;;;4.80;2.90;;;20.70;99.90;;;;;;6221962;23;20395;-71
2022/09/14 08:14:08;;;;;;;5.10;2.65;;;20.70;99.90;;;;;;6223987;23;20317;-71
2022/09/14 08:16:34;;;;;;;4.75;2.53;;;20.70;99.90;;;;;;6223065;23;20013;-70
2022/09/14 08:19:03;;;;;;;4.18;2.45;;;20.80;99.90;;;;;;6223773;23;20009;-71
2022/09/14 08:21:30;;;;;;;5.93;2.65;;;20.90;99.90;;;;;;6223807;23;19997;-70
2022/09/14 08:23:57;;;;;;;4.95;2.40;;;21.20;99.90;;;;;;6223905;23;20294;-69
2022/09/14 08:26:24;;;;;;;5.05;2.20;;;21.20;99.90;;;;;;6223221;23;20094;-71
2022/09/14 08:28:51;;;;;;;4.15;2.10;;;21.30;99.90;;;;;;6223903;23;20020;-70
2022/09/14 08:31:27;;;;;;;4.07;1.88;;;21.50;99.90;;;;;;6223774;23;20058;-70
2022/09/14 08:33:59;;;;;;;4.85;1.75;;;21.80;99.90;;;;;;6223022;23;20166;-69
2022/09/14 08:36:27;;;;;;;4.80;1.95;;;22.20;99.90;;;;;;6222714;23;20012;-70
2022/09/14 08:38:53;;;;;;;;;;;22.50;99.90;;;;;;6223828;23;20012;-71
2022/09/14 08:41:51;;;;;;;4.38;2.03;;;22.70;99.90;;;;;;6223834;23;19896;-70
2022/09/14 08:44:24;;;;;;;3.10;1.92;;;22.90;99.90;;;;;;6223651;23;20035;-71
2022/09/14 08:47:22;;;;;;;6.38;1.83;;;23.10;99.90;;;;;;6223050;23;20036;-72
2022/09/14 08:50:08;;;;;;;4.28;1.60;;;23.30;99.90;;;;;;6216629;23;20016;-72
2022/09/14 08:52:39;;;;;;;3.20;1.73;;;23.60;99.90;;;;;;6223552;23;20222;-70
2022/09/14 08:55:40;;;;;;;6.25;2.20;;;23.70;99.90;;;;;;6223879;23;20008;-70
2022/09/14 08:58:09;;;;;;;6.28;2.08;;;24.00;99.90;;;;;;6176882;23;20016;-71
2022/09/14 09:00:43;;;;;;;;;;;24.10;99.90;;;;;;6223772;23;20008;-73
2022/09/14 09:03:38;;;;;;;4.03;1.58;;;24.30;99.90;;;;;;6197266;23;20093;-71
2022/09/14 09:06:28;;;;;;;2.97;1.70;;;24.50;99.90;;;;;;6223901;23;20019;-70
2022/09/14 09:08:59;;;;;;;4.03;1.70;;;24.50;99.90;;;;;;6222805;23;20031;-70
2022/09/14 09:11:39;;;;;;;5.53;1.77;;;24.50;99.90;;;;;;6221722;23;20008;-72
2022/09/14 09:14:33;;;;;;;3.72;1.45;;;24.50;99.90;;;;;;6223806;23;20016;-71
2022/09/14 09:17:03;;;;;;;4.43;1.77;;;24.60;99.90;;;;;;6222988;23;20034;-72
2022/09/14 09:19:38;;;;;;;5.32;1.50;;;24.70;99.90;;;;;;6222506;23;20008;-70
2022/09/14 09:22:13;;;;;;;5.90;1.50;;;24.80;99.90;;;;;;6223724;23;20039;-71
2022/09/14 09:24:42;;;;;;;3.50;1.30;;;24.90;99.90;;;;;;6223025;23;20008;-71
2022/09/14 09:27:13;;;;;;;4.25;1.98;;;25.20;99.90;;;;;;6222844;23;20318;-71
2022/09/14 09:29:39;;;;;;;4.03;1.23;;;25.40;99.90;;;;;;6222791;23;20009;-71
2022/09/14 09:32:14;;;;;;;4.07;1.40;;;25.60;99.90;;;;;;6223144;23;20092;-71
2022/09/14 09:34:58;;;;;;;3.30;1.67;;;26.00;99.90;;;;;;6223244;23;20313;-72
2022/09/14 09:37:38;;;;;;;3.85;1.50;;;26.20;99.90;;;;;;6221127;23;20015;-71
2022/09/14 09:40:16;;;;;;;4.70;1.30;;;26.40;99.90;;;;;;6221629;23;20009;-72
2022/09/14 09:43:05;;;;;;;3.08;1.40;;;26.10;99.90;;;;;;6220954;23;20009;-70
2022/09/14 09:46:01;;;;;;;3.97;1.40;;;26.00;99.90;;;;;;6222529;23;20009;-74
2022/09/14 09:48:36;;;;;;;4.18;1.75;;;25.90;99.90;;;;;;6209650;23;20023;-73
2022/09/14 09:51:12;;;;;;;4.90;1.65;;;25.90;99.90;;;;;;6222942;23;20008;-73
2022/09/14 09:53:53;;;;;;;3.00;1.30;;;25.90;99.90;;;;;;6196328;23;20005;-73
2022/09/14 09:56:22;;;;;;;4.32;1.27;;;26.00;99.90;;;;;;6222873;23;20197;-73
2022/09/14 09:58:50;;;;;;;3.63;1.40;;;26.10;99.90;;;;;;6222816;23;20060;-73
2022/09/14 10:01:27;;;;;;;3.35;1.63;;;26.20;99.80;;;;;;6223104;23;20024;-73
2022/09/14 10:04:13;;;;;;;3.55;1.45;;;26.50;99.60;;;;;;6222879;23;20001;-73
2022/09/14 10:06:47;;;;;;;2.78;1.25;;;26.50;99.50;;;;;;6222440;23;20009;-73
2022/09/14 10:09:22;;;;;;;5.00;1.33;;;26.50;98.80;;;;;;6222462;23;20028;-73
2022/09/14 10:11:59;;;;;;;2.75;1.25;;;26.80;98.00;;;;;;6223030;23;20014;-73
2022/09/14 10:14:36;;;;;;;3.83;1.40;;;26.90;97.70;;;;;;6223403;23;19996;-73
2022/09/14 10:17:20;;;;;;;3.40;1.70;;;27.20;97.00;;;;;;6223080;23;20009;-71
2022/09/14 10:19:51;;;;;;;2.65;1.30;;;27.50;96.10;;;;;;6222105;23;20329;-72
2022/09/14 10:22:31;;;;;;;5.15;1.33;;;27.50;95.80;;;;;;6195923;23;20009;-71
2022/09/14 10:25:04;;;;;;;3.40;1.35;;;27.40;95.50;;;;;;6222815;23;20320;-71
2022/09/14 10:27:38;;;;;;;2.50;1.15;;;27.40;96.10;;;;;;6221856;23;20004;-71
2022/09/14 10:30:11;;;;;;;4.43;1.20;;;27.40;95.40;;;;;;6222225;23;20237;-72
2022/09/14 10:32:39;;;;;;;7.00;1.60;;;27.40;95.50;;;;;;6222437;23;20000;-72
2022/09/14 10:35:12;;;;;;;5.45;1.30;;;27.60;95.50;;;;;;6222562;23;19997;-71
2022/09/14 10:38:23;;;;;;;4.78;1.30;;;27.90;94.70;;;;;;6222078;23;20009;-72
2022/09/14 10:41:04;;;;;;;3.55;1.33;;;28.00;94.00;;;;;;6221783;23;20004;-73
2022/09/14 10:43:56;;;;;;;4.85;1.02;;;28.00;93.80;;;;;;6221855;23;20000;-72
2022/09/14 10:46:29;;;;;;;6.28;1.60;;;28.00;93.80;;;;;;6223644;23;20050;-73
2022/09/14 10:49:21;;;;;;;3.60;1.10;;;28.10;93.90;;;;;;6222786;23;20156;-71
2022/09/14 10:52:12;;;;;;;3.75;1.27;;;28.20;93.20;;;;;;6222277;23;20027;-71
2022/09/14 10:54:58;;;;;;;3.42;1.20;;;28.20;93.00;;;;;;6222056;23;20305;-72
2022/09/14 10:57:40;;;;;;;4.32;1.20;;;28.40;92.50;;;;;;6195727;23;20020;-71
2022/09/14 11:00:20;;;;;;;2.65;1.15;;;28.60;92.40;;;;;;6222677;23;19996;-70
2022/09/14 11:02:49;;;;;;;3.10;1.05;;;28.90;92.00;;;;;;6221335;23;20001;-71
2022/09/14 11:05:20;;;;;;;3.20;1.10;;;29.30;90.70;;;;;;6222412;23;20008;-72
2022/09/14 11:08:20;;;;;;;3.25;0.98;;;29.20;90.30;;;;;;6195190;23;20005;-72
2022/09/14 11:11:21;;;;;;;3.13;1.02;;;28.80;90.00;;;;;;6195664;23;20000;-75
2022/09/14 11:14:17;;;;;;;3.53;1.17;;;28.80;90.40;;;;;;6221859;23;20042;-72
2022/09/14 11:17:12;;;;;;;2.65;1.08;;;29.60;90.20;;;;;;6221363;23;20055;-72
2022/09/14 11:20:02;;;;;;;2.28;1.20;;;29.70;90.00;;;;;;6221334;23;20187;-74
2022/09/14 11:22:48;;;;;;;3.80;1.20;;;29.80;88.70;;;;;;6222231;23;20140;-74
2022/09/14 11:25:40;;;;;;;3.50;1.30;;;30.60;88.90;;;;;;6222424;23;20282;-74
2022/09/14 11:28:16;;;;;;;5.40;1.40;;;30.90;86.10;;;;;;6221944;23;20004;-71
2022/09/14 11:30:51;;;;;;;4.28;1.10;;;31.20;83.90;;;;;;6221595;23;20001;-72
2022/09/14 11:33:37;;;;;;;3.40;1.10;;;31.50;84.20;;;;;;6222407;23;20024;-72
2022/09/14 11:36:10;;;;;;;3.10;1.23;;;32.50;81.10;;;;;;6222130;23;20197;-72
2022/09/14 11:38:52;;;;;;;5.25;1.02;;;33.00;80.40;;;;;;6195817;23;20269;-72
2022/09/14 11:41:37;;;;;;;3.20;1.38;;;33.00;78.20;;;;;;6221453;23;20005;-72
2022/09/14 11:44:14;;;;;;;3.83;1.40;;;32.40;78.70;;;;;;6221834;23;20023;-72
2022/09/14 11:46:49;;;;;;;5.18;0.88;;;33.20;77.40;;;;;;6221190;23;20052;-72
2022/09/14 11:49:14;;;;;;;3.75;0.90;;;33.70;75.80;;;;;;6222441;23;20008;-72
2022/09/14 11:51:49;;;;;;;2.60;1.05;;;33.10;74.10;;;;;;6221715;23;20351;-73
2022/09/14 11:54:18;;;;;;;2.95;1.33;;;33.10;76.10;;;;;;6221870;23;20003;-72
2022/09/14 11:56:48;;;;;;;3.28;1.10;;;32.70;76.40;;;;;;6221676;23;20015;-72
2022/09/14 11:59:54;;;;;;;6.90;1.33;;;32.40;76.00;;;;;;6221689;23;20004;-71
2022/09/14 12:02:26;;;;;;;3.50;1.10;;;31.90;77.30;;;;;;6221250;23;20010;-72
2022/09/14 12:05:07;;;;;;;4.60;1.25;;;31.50;76.90;;;;;;6221687;23;20051;-72
2022/09/14 12:07:38;;;;;;;3.30;1.30;;;30.60;78.20;;;;;;6221849;23;20004;-72
2022/09/14 12:10:13;;;;;;;4.25;1.17;;;30.00;79.40;;;;;;6221640;23;20016;-72
2022/09/14 12:12:55;;;;;;;4.00;1.20;;;29.60;80.10;;;;;;6221993;23;20001;-72
2022/09/14 12:15:26;;;;;;;3.40;1.00;;;29.20;81.60;;;;;;6222164;23;20000;-71
2022/09/14 12:18:04;;;;;;;2.60;0.90;;;28.90;82.50;;;;;;6220913;23;20310;-77
2022/09/14 12:20:57;;;;;;;4.13;1.33;;;28.70;84.10;;;;;;6220703;23;20216;-71
2022/09/14 12:23:27;;;;;;;3.08;1.08;;;28.60;84.40;;;;;;6220864;23;20322;-72
2022/09/14 12:26:17;;;;;;;5.03;1.30;;;28.70;84.40;;;;;;6221197;23;19997;-77
2022/09/14 12:28:55;;;;;;;3.30;1.23;;;28.70;84.40;;;;;;6221674;23;20005;-78
2022/09/14 12:31:37;;;;;;;4.97;1.40;;;28.40;85.10;;;;;;6221545;23;20001;-71
2022/09/14 12:34:03;;;;;;;4.90;1.48;;;28.10;85.70;;;;;;6221609;23;20004;-71
2022/09/14 12:36:35;;;;;;;3.63;1.20;;;27.80;87.30;;;;;;6219991;23;20035;-72
2022/09/14 12:39:20;;;;;;;4.32;1.30;;;27.70;87.90;;;;;;6222027;23;20270;-72
2022/09/14 12:41:49;;;;;;;3.00;1.10;;;27.60;90.30;;;;;;6221357;23;20009;-72
2022/09/14 12:44:38;;;;;;;3.67;1.20;;;27.30;89.70;;;;;;6195114;23;20206;-72
2022/09/14 12:47:23;;;;;;;4.90;1.33;;;27.00;90.90;;;;;;6223649;23;20321;-72
2022/09/14 12:49:50;;;;;;;4.82;1.83;;;26.50;92.20;;;;;;6220873;23;20348;-74
2022/09/14 12:52:24;;;;;;;5.40;1.60;;;23.90;99.90;;;;;;6223546;23;19996;-72
2022/09/14 12:55:06;;;;;;;4.35;2.10;;;22.70;99.90;;;;;;6221378;23;20035;-74
2022/09/14 12:58:01;;;;;;;3.40;1.83;;;22.30;99.90;;;;;;6224165;23;20004;-72
2022/09/14 13:00:31;;;;;;;7.05;2.38;;;21.80;99.90;;;;;;6225444;23;20019;-73
2022/09/14 13:03:14;;;;;;;5.93;2.40;;;21.40;99.90;;;;;;6224240;23;19997;-72
2022/09/14 13:05:44;;;;;;;6.50;2.58;;;21.30;99.90;;;;;;6223593;23;20011;-71
2022/09/14 13:08:11;;;;;;;6.00;3.33;;;21.20;99.90;;;;;;6223428;23;20020;-74
2022/09/14 13:10:44;;;;;;;6.40;2.70;;;21.00;99.90;;;;;;6222564;23;20001;-73
2022/09/14 13:13:20;;;;;;;3.88;2.47;;;20.90;99.90;;;;;;6223723;23;20000;-72
2022/09/14 13:15:54;;;;;;;7.72;2.88;;;20.80;99.90;;;;;;6223249;23;20001;-74
2022/09/14 13:18:19;;;;;;;7.03;3.25;;;20.60;99.90;;;;;;6223853;23;20153;-75
2022/09/14 13:20:57;;;;;;;7.15;3.42;;;20.50;99.90;;;;;;6220762;23;20005;-73
2022/09/14 13:23:28;;;;;;;6.60;3.23;;;20.60;99.90;;;;;;6223512;23;20091;-76
2022/09/14 13:25:54;;;;;;;6.18;3.10;;;20.60;99.90;;;;;;6222283;23;20005;-72
2022/09/14 13:28:23;;;;;;;5.65;3.00;;;20.60;99.90;;;;;;6223703;23;20004;-73
2022/09/14 13:30:54;;;;;;;4.65;2.65;;;20.70;99.90;;;;;;6222258;23;20005;-72
2022/09/14 13:33:21;;;;;;;4.65;2.53;;;20.60;99.90;;;;;;6223215;23;20015;-73
2022/09/14 13:35:56;;;;;;;5.43;2.72;;;20.50;99.90;;;;;;6222455;23;20008;-73
2022/09/14 13:38:24;;;;;;;6.82;2.95;;;20.40;99.90;;;;;;6223946;23;20019;-73
2022/09/14 13:40:53;;;;;;;5.75;2.72;;;20.40;99.90;;;;;;6222971;23;20015;-72
2022/09/14 13:43:19;;;;;;;;;;;20.50;99.90;;;;;;6224024;23;20003;-72
2022/09/14 13:45:47;;;;;;;7.07;2.60;;;20.50;99.90;;;;;;6222675;23;19907;-73
2022/09/14 13:48:14;;;;;;;4.25;2.42;;;20.70;99.90;;;;;;6222796;23;20009;-72
2022/09/14 13:50:43;;;;;;;3.60;2.47;;;20.80;99.90;;;;;;6222439;23;20007;-72
2022/09/14 13:53:40;;;;;;;4.50;2.60;;;20.90;99.90;;;;;;6223165;23;20020;-74
2022/09/14 13:56:23;;;;;;;4.78;2.17;;;20.80;99.90;;;;;;6223186;23;20051;-72
2022/09/14 13:59:10;;;;;;;4.93;2.80;;;20.70;99.90;;;;;;6221996;23;20096;-76
2022/09/14 14:01:51;;;;;;;4.28;1.92;;;20.70;99.90;;;;;;6223403;23;20286;-74
2022/09/14 14:04:35;;;;;;;4.43;1.70;;;20.60;99.90;;;;;;6222392;23;20298;-75
2022/09/14 14:07:03;;;;;;;4.68;1.75;;;20.50;99.90;;;;;;6222440;23;20064;-74
2022/09/14 14:09:58;;;;;;;3.85;1.65;;;20.40;99.90;;;;;;6223073;23;20001;-75
2022/09/14 14:12:28;;;;;;;4.20;1.30;;;20.40;99.90;;;;;;6191433;23;20064;-74
2022/09/14 14:14:55;;;;;;;4.57;1.60;;;20.30;99.90;;;;;;6220941;23;20199;-74
2022/09/14 14:17:28;;;;;;;3.55;1.50;;;20.40;99.90;;;;;;6222977;23;20262;-73
2022/09/14 14:19:57;;;;;;;1.85;1.02;;;20.30;99.90;;;;;;6222181;23;20290;-74
2022/09/14 14:22:32;;;;;;;5.22;1.20;;;20.30;99.90;;;;;;6223052;23;20008;-74
2022/09/14 14:24:59;;;;;;;2.92;1.13;;;20.30;99.90;;;;;;6222101;23;20079;-73
2022/09/14 14:27:34;;;;;;;2.38;1.10;;;20.30;99.90;;;;;;6222994;23;20028;-73
2022/09/14 14:30:03;;;;;;;3.00;1.40;;;20.30;99.90;;;;;;6224101;23;20020;-73
2022/09/14 14:32:30;;;;;;;2.88;1.10;;;20.30;99.90;;;;;;6221537;23;20294;-74
2022/09/14 14:34:56;;;;;;;3.58;1.10;;;20.50;99.90;;;;;;6222509;23;19996;-71
2022/09/14 14:37:21;;;;;;;4.32;1.23;;;20.50;99.90;;;;;;6223088;23;20029;-76
2022/09/14 14:39:47;;;;;;;3.25;1.10;;;20.60;99.90;;;;;;6221713;23;20011;-71
2022/09/14 14:42:15;;;;;;;2.50;0.98;;;20.50;99.90;;;;;;6222967;23;20149;-74
2022/09/14 14:44:42;;;;;;;2.83;1.15;;;20.60;99.90;;;;;;6224452;23;20085;-74
2022/09/14 14:47:12;;;;;;;3.53;1.05;;;20.60;99.90;;;;;;6225197;23;20005;-72
2022/09/14 14:49:37;;;;;;;2.67;0.90;;;20.70;99.90;;;;;;6224444;23;20020;-75
2022/09/14 14:52:03;;;;;;;3.58;1.00;;;20.70;99.90;;;;;;6253115;23;20134;-72
2022/09/14 14:54:29;;;;;;;3.85;1.23;;;20.70;99.90;;;;;;6252615;23;20030;-73
2022/09/14 14:56:55;;;;;;;3.28;1.00;;;20.70;99.90;;;;;;6252192;23;20035;-72
2022/09/14 14:59:24;;;;;;;4.45;1.20;;;20.70;99.90;;;;;;6252597;23;20000;-72
2022/09/14 15:01:51;;;;;;;4.50;1.20;;;20.70;99.90;;;;;;6252423;23;19988;-73
2022/09/14 15:04:17;;;;;;;3.17;1.38;;;20.70;99.90;;;;;;6252849;23;20008;-72
2022/09/14 15:06:45;;;;;;;2.60;1.23;;;20.80;99.90;;;;;;6252070;23;20011;-72
2022/09/14 15:09:19;;;;;;;4.07;1.00;;;20.80;99.90;;;;;;6253093;23;20038;-72
2022/09/14 15:11:45;;;;;;;3.08;0.70;;;20.60;99.90;;;;;;6252557;23;20004;-71
2022/09/14 15:14:13;;;;;;;2.08;0.82;;;20.30;99.90;;;;;;6226165;23;20007;-73
2022/09/14 15:16:39;;;;;;;1.90;0.65;;;20.10;99.90;;;;;;6253139;23;19997;-71
2022/09/14 15:19:05;;;;;;;2.00;0.90;;;20.00;99.90;;;;;;6250971;23;20008;-74
2022/09/14 15:21:31;;;;;;;1.98;0.65;;;20.00;99.90;;;;;;6226088;23;20015;-71
2022/09/14 15:23:57;;;;;;;2.25;0.70;;;20.10;99.90;;;;;;6252415;23;20046;-72
2022/09/14 15:26:24;;;;;;;2.42;0.70;;;20.00;99.90;;;;;;6252864;23;20062;-73
2022/09/14 15:28:51;;;;;;;2.10;0.60;;;20.00;99.90;;;;;;6251916;23;20308;-72
2022/09/14 15:31:17;;;;;;;2.47;0.68;;;20.00;99.90;;;;;;6252850;23;20182;-72
2022/09/14 15:33:43;;;;;;;2.35;0.70;;;20.10;99.90;;;;;;6252240;23;20007;-73
2022/09/14 15:36:09;;;;;;;4.30;0.60;;;20.20;99.90;;;;;;6252877;23;20008;-73
2022/09/14 15:38:35;;;;;;;2.33;0.70;;;20.60;99.90;;;;;;6252721;23;20000;-74
2022/09/14 15:41:01;;;;;;;2.70;0.63;;;21.70;99.90;;;;;;6251856;23;20294;-74
2022/09/14 15:43:27;;;;;;;4.20;0.50;;;22.20;99.90;;;;;;6252527;23;20005;-72
2022/09/14 15:45:52;;;;;;;2.08;0.40;;;22.30;99.90;;;;;;6251837;23;20007;-72
2022/09/14 15:48:19;;;;;;;1.95;0.50;;;22.50;99.90;;;;;;6252942;23;20008;-71
2022/09/14 15:50:46;;;;;;;2.95;0.60;;;22.70;99.90;;;;;;6251641;23;20064;-74
2022/09/14 15:53:14;;;;;;;2.78;0.63;;;22.70;99.90;;;;;;6252825;23;20008;-71
2022/09/14 15:55:42;;;;;;;2.30;0.70;;;22.50;99.90;;;;;;6225694;23;20014;-71
2022/09/14 15:58:09;;;;;;;2.38;0.30;;;23.10;99.90;;;;;;6252822;23;20016;-71
2022/09/14 16:00:36;;;;;;;1.58;0.30;;;24.90;99.90;;;;;;6226337;23;19999;-73
2022/09/14 16:03:02;;;;;;;3.65;0.40;;;26.20;99.90;;;;;;6252130;23;20000;-71
2022/09/14 16:05:29;;;;;;;1.02;0.30;;;27.00;99.90;;;;;;6252486;23;20047;-73
2022/09/14 16:07:56;;;;;;;1.00;0.40;;;28.00;98.50;;;;;;6251682;23;20011;-72
2022/09/14 16:10:24;;;;;;;2.25;0.52;;;28.90;94.80;;;;;;6225723;23;20035;-72
2022/09/14 16:12:53;;;;;;;;;;;28.50;94.50;;;;;;6252505;23;20045;-72
2022/09/14 16:15:19;;;;;;;2.38;1.05;;;29.80;92.00;;;;;;6252060;23;19903;-70
2022/09/14 16:17:49;;;;;;;1.23;0.40;;;28.70;91.50;;;;;;6252865;23;20047;-73
2022/09/14 16:20:15;;;;;;;1.35;0.30;;;27.30;93.70;;;;;;6254696;23;20020;-73
2022/09/14 16:22:41;;;;;;;1.48;0.50;;;26.10;95.40;;;;;;6254539;23;20023;-73
2022/09/14 16:25:06;;;;;;;2.30;0.40;;;25.30;97.10;;;;;;6254213;23;20276;-73
2022/09/14 16:27:32;;;;;;;2.08;0.60;;;24.40;98.70;;;;;;6254586;23;20004;-73
2022/09/14 16:29:58;;;;;;;2.03;0.43;;;23.60;99.90;;;;;;6253484;23;19995;-73
2022/09/14 16:32:24;;;;;;;2.80;0.55;;;23.50;99.90;;;;;;6254562;23;20056;-73
2022/09/14 16:34:49;;;;;;;1.90;0.80;;;23.40;99.90;;;;;;6253733;23;20059;-72
2022/09/14 16:37:15;;;;;;;2.80;0.65;;;23.80;99.90;;;;;;6254489;23;20012;-72
2022/09/14 16:39:41;;;;;;;2.53;0.70;;;24.30;99.90;;;;;;6254510;23;20006;-73
2022/09/14 16:42:07;;;;;;;2.70;0.70;;;24.50;99.90;;;;;;6227043;23;20012;-73
2022/09/14 16:44:33;;;;;;;4.90;0.70;;;24.70;99.90;;;;;;6254495;23;20066;-73
2022/09/14 16:46:58;;;;;;;2.97;0.60;;;24.60;99.90;;;;;;6253205;23;20004;-73
2022/09/14 16:49:25;;;;;;;2.30;0.85;;;24.30;99.90;;;;;;6254579;23;20024;-73
2022/09/14 16:51:51;;;;;;;2.17;0.63;;;23.80;99.90;;;;;;6226735;23;20007;-73
2022/09/14 16:54:20;;;;;;;3.45;0.68;;;23.40;99.90;;;;;;6254369;23;20008;-75
2022/09/14 16:56:46;;;;;;;3.90;2.33;;;23.10;99.90;;;;;;6227331;23;20008;-72
2022/09/14 16:59:14;;;;;;;5.75;3.33;;;23.00;99.90;;;;;;6254162;23;19996;-78
2022/09/14 17:01:42;;;;;;;4.57;3.17;;;22.60;99.90;;;;;;6253423;23;20004;-72
2022/09/14 17:04:10;;;;;;;3.40;0.80;;;22.40;99.90;;;;;;6226604;23;20008;-75
2022/09/14 17:06:38;;;;;;;3.20;1.00;;;22.20;99.90;;;;;;6253818;23;20379;-76
2022/09/14 17:09:11;;;;;;;2.30;1.00;;;22.00;99.90;;;;;;6253269;23;20003;-77
2022/09/14 17:11:38;;;;;;;3.85;0.93;;;21.80;99.90;;;;;;6254198;23;20000;-75
2022/09/14 17:14:05;;;;;;;1.60;0.63;;;21.70;99.90;;;;;;6227094;23;20000;-76
2022/09/14 17:16:31;;;;;;;3.17;1.00;;;21.60;99.90;;;;;;6254074;23;20219;-76
2022/09/14 17:18:59;;;;;;;2.42;0.75;;;21.40;99.90;;;;;;6252854;23;20027;-74
2022/09/14 17:21:30;;;;;;;2.30;0.80;;;21.40;99.90;;;;;;6254175;23;20020;-74
2022/09/14 17:23:56;;;;;;;3.67;0.90;;;21.30;99.90;;;;;;6253285;23;20278;-78
2022/09/14 17:26:22;;;;;;;3.50;1.25;;;21.20;99.90;;;;;;6253933;23;20223;-75
2022/09/14 17:28:50;;;;;;;3.80;1.10;;;21.10;99.90;;;;;;6253944;23;20000;-74
2022/09/14 17:31:19;;;;;;;1.70;0.80;;;21.00;99.90;;;;;;6254182;23;20028;-74
2022/09/14 17:33:46;;;;;;;2.10;1.00;;;20.90;99.90;;;;;;6254585;23;20273;-74
2022/09/14 17:36:12;;;;;;;2.95;1.48;;;20.80;99.90;;;;;;6235049;23;20012;-75
2022/09/14 17:38:40;;;;;;;2.58;0.80;;;20.70;99.90;;;;;;6223658;23;20001;-75
2022/09/14 17:41:18;;;;;;;2.38;0.80;;;20.60;99.90;;;;;;6222617;23;20067;-74
2022/09/14 17:43:48;;;;;;;3.70;1.73;;;20.50;99.90;;;;;;6223597;23;20234;-75
2022/09/14 17:46:14;;;;;;;5.22;1.65;;;20.40;99.90;;;;;;6222433;23;20013;-75
2022/09/14 17:48:41;;;;;;;2.60;1.00;;;20.40;99.90;;;;;;6223373;23;20008;-76
2022/09/14 17:51:10;;;;;;;2.17;1.02;;;20.30;99.90;;;;;;6223323;23;20024;-76
2022/09/14 17:53:37;;;;;;;3.42;1.45;;;20.20;99.90;;;;;;6220856;23;20009;-75
2022/09/14 17:56:08;;;;;;;5.65;1.85;;;20.10;99.90;;;;;;6223133;23;20004;-76